Flugplatz Leer-Papenburg

METAR ETNT TAF ETMN
6 °C
°C
-
°C
13m
年龄
10:33:08
LT
09:33
UTC
0 ft

1.000

2.000

3.000

4.000

5.000

FEW 700
BKN 1.100
MVFR
<?= Yii::t('app', 'Wind direction') ?> <?= Yii::t('app', 'of'); ?>
260°
17:09
日落
87%
湿度
风切变
关闭/下雪
RWY可视范围
RWY状况
垂直能见度
最低能见度
CAVOK
趋势
纠正
特别报告
1013 hPa
QNH
METAR ETNT 310920Z 26016KT 9999 FEW007 BKN011 06/04 Q1013 BLACKGRN
碎云
0 kt
0 kt
10:00
LIFR
20 kt
11:00
LIFR
20 kt
12:00
LIFR
20 kt
13:00
LIFR
20 kt
14:00
LIFR
20 kt
15:00
IFR
22 kt
16:00
IFR
22 kt
10 km+
能见度
1.100 ft
天花板
16 kt
metar-taf.com/EDWF

Metar-Taf.com

视觉解码器

我们和第三方通过cookies跟踪您在我们网站上的互联网行为。如果你继续,我们认为你同意我们的饼干政策